Time;durP1;ratioP1;P1;durP2;ratioP2;P2;SDS_P1;SDS_P2;PMS_P1;PMS_P2;Temp;Humidity;BMP_temperature;BMP_pressure;BME280_temperature;BME280_humidity;BME280_pressure;Samples;Min_cycle;Max_cycle;Signal;HPM_P1;HPM_P2
2023/12/31 00:01:18;;;;;;;6.43;4.20;;;;;;;;;;6289267;28;20196;-65
2023/12/31 00:04:19;;;;;;;8.60;4.37;;;;;;;;;;6289959;28;20202;-65
2023/12/31 00:07:20;;;;;;;7.93;4.10;;;;;;;;;;6279839;28;20189;-65
2023/12/31 00:10:21;;;;;;;6.27;4.33;;;;;;;;;;6288143;28;20188;-65
2023/12/31 00:13:22;;;;;;;7.37;3.90;;;;;;;;;;6268446;28;20195;-65
2023/12/31 00:16:23;;;;;;;7.07;4.30;;;;;;;;;;6277810;28;20188;-65
2023/12/31 00:19:24;;;;;;;7.13;4.17;;;;;;;;;;6262883;28;20217;-64
2023/12/31 00:22:25;;;;;;;4.97;3.77;;;;;;;;;;6297890;28;20189;-65
2023/12/31 00:25:26;;;;;;;6.03;4.33;;;;;;;;;;6293256;28;20185;-65
2023/12/31 00:28:27;;;;;;;7.63;3.93;;;;;;;;;;6275936;28;20222;-65
2023/12/31 00:31:28;;;;;;;6.20;4.13;;;;;;;;;;6294020;28;20188;-65
2023/12/31 00:34:29;;;;;;;5.80;4.20;;;;;;;;;;6285052;28;20241;-64
2023/12/31 00:37:30;;;;;;;7.90;4.60;;;;;;;;;;6270945;28;20196;-65
2023/12/31 00:40:31;;;;;;;6.33;4.30;;;;;;;;;;6270386;28;20213;-65
2023/12/31 00:43:32;;;;;;;9.00;4.33;;;;;;;;;;6279466;28;20191;-65
2023/12/31 00:46:33;;;;;;;7.43;4.23;;;;;;;;;;6271649;28;20217;-65
2023/12/31 00:49:34;;;;;;;7.80;4.60;;;;;;;;;;6277199;28;20193;-65
2023/12/31 00:52:35;;;;;;;6.90;4.20;;;;;;;;;;6281536;28;20188;-64
2023/12/31 00:55:38;;;;;;;5.83;4.20;;;;;;;;;;6280456;28;20216;-65
2023/12/31 00:58:39;;;;;;;6.00;4.53;;;;;;;;;;6283991;28;20493;-65
2023/12/31 01:01:40;;;;;;;6.67;4.53;;;;;;;;;;6279067;28;20183;-64
2023/12/31 01:04:41;;;;;;;6.13;3.70;;;;;;;;;;6277479;28;20257;-65
2023/12/31 01:07:42;;;;;;;11.10;5.93;;;;;;;;;;6280241;28;20181;-65
2023/12/31 01:10:43;;;;;;;5.67;4.07;;;;;;;;;;6293960;28;20185;-65
2023/12/31 01:13:44;;;;;;;5.23;4.27;;;;;;;;;;6281989;28;20189;-65
2023/12/31 01:16:46;;;;;;;7.20;4.67;;;;;;;;;;6276772;28;20441;-64
2023/12/31 01:19:47;;;;;;;6.23;4.33;;;;;;;;;;6298394;28;20201;-65
2023/12/31 01:22:48;;;;;;;7.83;4.70;;;;;;;;;;6275004;28;20199;-65
2023/12/31 01:25:49;;;;;;;5.53;4.10;;;;;;;;;;6281478;28;20188;-64
2023/12/31 01:28:50;;;;;;;5.57;4.37;;;;;;;;;;6295743;28;20196;-65
2023/12/31 01:31:51;;;;;;;6.70;4.30;;;;;;;;;;6291462;28;20186;-64
2023/12/31 01:34:52;;;;;;;6.90;4.33;;;;;;;;;;6281980;28;20201;-64
2023/12/31 01:37:53;;;;;;;8.40;4.63;;;;;;;;;;6292396;28;20244;-64
2023/12/31 01:40:55;;;;;;;5.83;4.10;;;;;;;;;;6275203;28;20217;-64
2023/12/31 01:44:02;;;;;;;6.37;4.40;;;;;;;;;;6286448;28;20272;-64
2023/12/31 01:47:04;;;;;;;5.93;4.60;;;;;;;;;;6291515;28;20182;-64
2023/12/31 01:50:05;;;;;;;6.47;4.57;;;;;;;;;;6309481;28;20252;-64
2023/12/31 01:53:06;;;;;;;7.33;4.63;;;;;;;;;;6283818;28;20231;-64
2023/12/31 01:56:08;;;;;;;6.80;4.43;;;;;;;;;;6303220;28;20310;-64
2023/12/31 01:59:09;;;;;;;5.30;4.17;;;;;;;;;;6290718;28;20309;-64
2023/12/31 02:02:10;;;;;;;5.93;4.50;;;;;;;;;;6286332;28;20193;-64
2023/12/31 02:05:12;;;;;;;5.63;4.20;;;;;;;;;;6295647;28;20188;-64
2023/12/31 02:08:13;;;;;;;6.20;4.40;;;;;;;;;;6297204;28;20227;-64
2023/12/31 02:11:15;;;;;;;6.57;4.40;;;;;;;;;;6274974;28;20245;-64
2023/12/31 02:14:16;;;;;;;8.37;4.90;;;;;;;;;;6277243;28;20222;-64
2023/12/31 02:17:17;;;;;;;7.07;4.50;;;;;;;;;;6288152;28;20283;-64
2023/12/31 02:20:18;;;;;;;8.83;4.53;;;;;;;;;;6281617;28;20257;-64
2023/12/31 02:23:20;;;;;;;6.77;4.67;;;;;;;;;;6281679;28;20193;-64
2023/12/31 02:26:21;;;;;;;5.20;4.13;;;;;;;;;;6278725;28;20188;-64
2023/12/31 02:29:22;;;;;;;7.00;4.37;;;;;;;;;;6289437;28;20197;-64
2023/12/31 02:32:23;;;;;;;6.53;4.37;;;;;;;;;;6289336;28;20204;-64
2023/12/31 02:35:24;;;;;;;7.37;5.27;;;;;;;;;;6283785;28;20205;-64
2023/12/31 02:38:25;;;;;;;6.37;4.67;;;;;;;;;;6299240;28;20212;-64
2023/12/31 02:41:26;;;;;;;7.70;4.17;;;;;;;;;;6296529;28;20192;-64
2023/12/31 02:44:27;;;;;;;6.10;4.73;;;;;;;;;;6280589;28;20192;-64
2023/12/31 02:47:28;;;;;;;6.13;4.33;;;;;;;;;;6297295;28;20289;-64
2023/12/31 02:50:31;;;;;;;6.20;4.53;;;;;;;;;;6295130;28;20211;-64
2023/12/31 02:53:32;;;;;;;9.57;4.60;;;;;;;;;;6271302;28;20201;-64
2023/12/31 02:56:39;;;;;;;6.43;4.37;;;;;;;;;;6283304;28;20261;-64
2023/12/31 02:59:40;;;;;;;6.00;4.47;;;;;;;;;;6286539;28;20330;-64
2023/12/31 03:02:41;;;;;;;6.50;4.50;;;;;;;;;;6306755;28;20187;-64
2023/12/31 03:05:42;;;;;;;4.57;3.87;;;;;;;;;;6287054;28;20191;-64
2023/12/31 03:08:43;;;;;;;7.13;4.23;;;;;;;;;;6306828;28;20184;-64
2023/12/31 03:11:45;;;;;;;5.63;4.30;;;;;;;;;;6299139;28;20188;-64
2023/12/31 03:14:46;;;;;;;6.80;4.77;;;;;;;;;;6284571;28;20196;-64
2023/12/31 03:17:47;;;;;;;5.53;3.73;;;;;;;;;;6280824;28;20200;-64
2023/12/31 03:20:48;;;;;;;9.17;4.27;;;;;;;;;;6287036;28;20255;-64
2023/12/31 03:23:49;;;;;;;8.00;5.53;;;;;;;;;;6301021;28;20241;-64
2023/12/31 03:26:50;;;;;;;6.53;4.17;;;;;;;;;;6281547;28;20193;-64
2023/12/31 03:29:51;;;;;;;7.30;4.57;;;;;;;;;;6290767;28;20280;-64
2023/12/31 03:32:52;;;;;;;7.43;4.73;;;;;;;;;;6302753;28;20647;-64
2023/12/31 03:35:53;;;;;;;5.40;4.23;;;;;;;;;;6304649;28;20195;-64
2023/12/31 03:38:54;;;;;;;6.37;4.30;;;;;;;;;;6274519;28;20215;-64
2023/12/31 03:41:55;;;;;;;7.23;4.73;;;;;;;;;;6284454;28;20201;-65
2023/12/31 03:44:56;;;;;;;7.10;4.93;;;;;;;;;;6292158;28;20196;-64
2023/12/31 03:47:57;;;;;;;6.70;4.63;;;;;;;;;;6277696;28;20235;-64
2023/12/31 03:50:58;;;;;;;6.23;4.37;;;;;;;;;;6282226;28;20192;-65
2023/12/31 03:53:59;;;;;;;7.70;4.47;;;;;;;;;;6284847;28;20219;-64
2023/12/31 03:57:00;;;;;;;6.27;4.43;;;;;;;;;;6290579;28;20235;-64
2023/12/31 04:00:03;;;;;;;8.80;4.97;;;;;;;;;;6268991;28;20221;-64
2023/12/31 04:03:04;;;;;;;6.33;4.37;;;;;;;;;;6290779;28;20188;-65
2023/12/31 04:06:09;;;;;;;7.17;4.80;;;;;;;;;;6283333;28;20187;-64
2023/12/31 04:09:11;;;;;;;7.37;4.10;;;;;;;;;;6302288;28;20185;-64
2023/12/31 04:12:12;;;;;;;5.90;5.00;;;;;;;;;;6284194;28;20204;-64
2023/12/31 04:15:13;;;;;;;5.90;4.97;;;;;;;;;;6274559;28;20218;-64
2023/12/31 04:18:14;;;;;;;5.90;4.33;;;;;;;;;;6277227;28;20188;-64
2023/12/31 04:21:15;;;;;;;5.93;4.43;;;;;;;;;;6290962;28;20184;-64
2023/12/31 04:24:16;;;;;;;6.37;4.33;;;;;;;;;;6278208;28;20188;-64
2023/12/31 04:27:17;;;;;;;6.97;4.77;;;;;;;;;;6287572;28;20196;-65
2023/12/31 04:30:22;;;;;;;7.23;4.77;;;;;;;;;;6280215;28;20208;-64
2023/12/31 04:33:23;;;;;;;5.23;4.33;;;;;;;;;;6287970;28;20246;-64
2023/12/31 04:36:24;;;;;;;9.73;5.10;;;;;;;;;;6294118;28;20187;-64
2023/12/31 04:39:25;;;;;;;10.50;5.07;;;;;;;;;;6293364;28;20223;-64
2023/12/31 04:42:27;;;;;;;6.47;5.20;;;;;;;;;;6303964;28;20195;-64
2023/12/31 04:45:27;;;;;;;7.07;5.23;;;1.70;81.00;;;;;;6285815;28;20249;-64
2023/12/31 04:48:28;;;;;;;7.97;6.37;;;0.50;86.10;;;;;;6269299;28;20199;-64
2023/12/31 04:51:30;;;;;;;11.33;6.50;;;0.60;85.50;;;;;;6288974;28;20205;-64
2023/12/31 04:54:31;;;;;;;9.13;6.00;;;0.60;85.70;;;;;;6280814;28;20205;-64
2023/12/31 04:57:31;;;;;;;7.20;6.00;;;0.60;85.30;;;;;;6258551;28;20225;-64
2023/12/31 05:00:32;;;;;;;8.00;6.37;;;0.60;85.00;;;;;;6260374;28;20212;-64
2023/12/31 05:03:33;;;;;;;9.60;6.33;;;0.70;85.10;;;;;;6264825;28;20191;-64
2023/12/31 05:06:33;;;;;;;7.90;5.53;;;0.70;84.50;;;;;;6277993;28;20220;-64
2023/12/31 05:09:35;;;;;;;9.47;5.37;;;0.60;84.30;;;;;;6268828;28;20278;-65
2023/12/31 05:12:36;;;;;;;9.73;5.17;;;0.60;83.70;;;;;;6263371;28;20199;-64
2023/12/31 05:15:36;;;;;;;6.53;5.17;;;0.50;83.50;;;;;;6274735;28;20217;-64
2023/12/31 05:18:37;;;;;;;8.20;5.00;;;0.40;83.60;;;;;;6267694;28;20218;-64
2023/12/31 05:21:41;;;;;;;6.63;5.00;;;0.30;83.90;;;;;;6281742;28;20207;-64
2023/12/31 05:24:42;;;;;;;8.20;5.03;;;0.30;84.10;;;;;;6285756;28;20188;-64
2023/12/31 05:27:42;;;;;;;7.77;5.10;;;0.30;83.60;;;;;;6281612;28;20649;-64
2023/12/31 05:30:43;;;;;;;6.90;5.10;;;0.20;83.80;;;;;;6279636;28;20191;-63
2023/12/31 05:33:44;;;;;;;7.93;5.07;;;0.20;84.00;;;;;;6267420;28;20253;-63
2023/12/31 05:36:45;;;;;;;8.03;5.10;;;0.10;84.10;;;;;;6273947;28;20199;-63
2023/12/31 05:39:45;;;;;;;6.27;5.07;;;0.20;84.10;;;;;;6258328;28;20302;-63
2023/12/31 05:42:46;;;;;;;7.10;4.83;;;0.10;83.90;;;;;;6288410;28;20205;-63
2023/12/31 05:45:47;;;;;;;7.07;4.70;;;0.10;83.40;;;;;;6265834;28;20245;-63
2023/12/31 05:48:47;;;;;;;7.10;4.50;;;0.00;83.30;;;;;;6274090;28;20185;-63
2023/12/31 05:51:48;;;;;;;7.63;4.73;;;0.00;83.40;;;;;;6281927;28;20199;-63
2023/12/31 05:54:49;;;;;;;8.07;5.07;;;0.00;83.70;;;;;;6268141;28;20205;-64
2023/12/31 05:57:50;;;;;;;11.17;4.87;;;0.00;84.10;;;;;;6271822;28;20258;-64
2023/12/31 06:00:51;;;;;;;5.60;4.33;;;0.00;83.40;;;;;;6304467;28;20237;-64
2023/12/31 06:03:53;;;;;;;8.50;4.80;;;24.00;50.00;;;;;;6270108;28;20188;-65
2023/12/31 06:06:54;;;;;;;7.20;4.60;;;0.00;84.60;;;;;;6267845;28;20879;-64
2023/12/31 06:09:55;;;;;;;8.27;5.03;;;0.00;84.40;;;;;;6274044;28;20192;-64
2023/12/31 06:12:55;;;;;;;7.60;5.17;;;0.00;84.20;;;;;;6270313;28;20196;-64
2023/12/31 06:15:56;;;;;;;7.57;5.50;;;0.00;84.00;;;;;;6269035;28;20263;-64
2023/12/31 06:18:57;;;;;;;6.83;4.67;;;0.00;83.70;;;;;;6283329;28;20285;-64
2023/12/31 06:21:57;;;;;;;7.00;4.60;;;0.00;84.00;;;;;;6263411;28;20200;-64
2023/12/31 06:24:58;;;;;;;7.80;4.80;;;0.00;83.80;;;;;;6263267;28;20181;-67
2023/12/31 06:27:59;;;;;;;6.57;5.00;;;0.00;84.00;;;;;;6307454;28;20232;-65
2023/12/31 06:31:00;;;;;;;8.20;4.77;;;0.00;83.70;;;;;;6271559;28;20192;-65
2023/12/31 06:34:00;;;;;;;8.63;5.30;;;-0.10;83.70;;;;;;6255476;28;20211;-65
2023/12/31 06:37:01;;;;;;;7.73;4.87;;;0.00;84.00;;;;;;6261207;28;20224;-65
2023/12/31 06:40:03;;;;;;;7.83;4.87;;;0.00;84.20;;;;;;6262807;28;20217;-64
2023/12/31 06:43:03;;;;;;;9.77;5.33;;;0.00;84.40;;;;;;6264114;28;20284;-64
2023/12/31 06:46:05;;;;;;;6.70;5.13;;;0.00;84.30;;;;;;6277640;28;20218;-64
2023/12/31 06:49:05;;;;;;;7.07;5.67;;;0.00;84.30;;;;;;6282869;28;20196;-64
2023/12/31 06:52:06;;;;;;;9.93;5.43;;;0.00;84.20;;;;;;6267476;28;20260;-63
2023/12/31 06:55:10;;;;;;;8.10;5.47;;;0.00;84.10;;;;;;6269955;28;20206;-64
2023/12/31 06:58:12;;;;;;;7.40;5.57;;;0.00;84.00;;;;;;6289320;28;20239;-64
2023/12/31 07:01:14;;;;;;;7.40;5.23;;;0.00;83.60;;;;;;6302642;28;20201;-63
2023/12/31 07:04:14;;;;;;;8.80;4.70;;;0.00;84.30;;;;;;6277280;28;20195;-64
2023/12/31 07:07:15;;;;;;;7.97;5.27;;;0.00;84.30;;;;;;6284410;28;20205;-63
2023/12/31 07:10:16;;;;;;;9.30;5.37;;;0.00;84.30;;;;;;6271972;28;20219;-64
2023/12/31 07:13:16;;;;;;;8.73;5.83;;;0.10;84.00;;;;;;6269299;28;20193;-63
2023/12/31 07:16:17;;;;;;;5.13;4.43;;;0.10;83.90;;;;;;6293589;28;20193;-63
2023/12/31 07:19:19;;;;;;;8.73;5.17;;;0.00;83.50;;;;;;6275849;28;20212;-63
2023/12/31 07:22:20;;;;;;;6.23;4.60;;;;;;;;;;6263511;28;20300;-63
2023/12/31 07:25:23;;;;;;;7.37;4.87;;;0.00;84.10;;;;;;6298208;28;20267;-63
2023/12/31 07:28:24;;;;;;;6.77;4.70;;;0.10;84.20;;;;;;6266557;28;20327;-64
2023/12/31 07:31:24;;;;;;;8.93;5.43;;;0.20;83.90;;;;;;6271625;28;20185;-64
2023/12/31 07:34:25;;;;;;;9.47;5.77;;;0.20;83.50;;;;;;6258751;28;20219;-64
2023/12/31 07:37:26;;;;;;;7.90;5.73;;;0.20;83.60;;;;;;6257217;28;20185;-65
2023/12/31 07:40:27;;;;;;;7.93;5.40;;;0.30;84.20;;;;;;6268466;28;20218;-67
2023/12/31 07:43:27;;;;;;;7.90;6.00;;;0.30;83.80;;;;;;6287103;28;20202;-66
2023/12/31 07:46:28;;;;;;;7.67;5.23;;;0.30;83.70;;;;;;6268874;28;20193;-63
2023/12/31 07:49:30;;;;;;;11.23;5.70;;;0.30;84.20;;;;;;6286310;28;20196;-63
2023/12/31 07:52:31;;;;;;;10.10;6.50;;;0.30;84.30;;;;;;6265044;28;20245;-63
2023/12/31 07:55:31;;;;;;;8.23;5.40;;;0.40;84.60;;;;;;6284183;28;20189;-63
2023/12/31 07:58:32;;;;;;;7.93;5.53;;;0.40;84.80;;;;;;6262727;28;20374;-63
2023/12/31 08:01:33;;;;;;;10.10;5.50;;;0.50;85.00;;;;;;6285520;28;20212;-63
2023/12/31 08:04:33;;;;;;;7.20;5.10;;;0.60;85.20;;;;;;6280138;28;20181;-63
2023/12/31 08:07:34;;;;;;;8.50;5.10;;;0.60;85.00;;;;;;6263753;28;20189;-63
2023/12/31 08:10:35;;;;;;;8.97;5.57;;;0.60;85.00;;;;;;6269942;28;20242;-64
2023/12/31 08:13:36;;;;;;;7.57;5.47;;;0.70;85.20;;;;;;6261956;28;20191;-63
2023/12/31 08:16:36;;;;;;;6.00;4.80;;;0.80;85.40;;;;;;6282649;28;20191;-63
2023/12/31 08:19:37;;;;;;;8.03;5.67;;;0.80;85.40;;;;;;6272074;28;20204;-64
2023/12/31 08:22:38;;;;;;;8.17;5.03;;;0.90;85.30;;;;;;6276994;28;20290;-62
2023/12/31 08:25:39;;;;;;;8.07;5.43;;;1.00;85.00;;;;;;6287788;28;20212;-62
2023/12/31 08:28:39;;;;;;;9.93;6.50;;;1.00;85.00;;;;;;6262353;28;20224;-62
2023/12/31 08:31:40;;;;;;;7.43;6.17;;;1.00;84.60;;;;;;6284946;28;20193;-62
2023/12/31 08:34:41;;;;;;;9.13;5.50;;;1.00;84.60;;;;;;6276868;28;20278;-62
2023/12/31 08:37:41;;;;;;;8.77;5.77;;;1.00;84.70;;;;;;6278678;28;20196;-62
2023/12/31 08:40:43;;;;;;;8.23;5.80;;;1.00;84.60;;;;;;6264154;28;20204;-62
2023/12/31 08:43:44;;;;;;;7.47;6.10;;;1.10;84.40;;;;;;6273101;28;20182;-62
2023/12/31 08:46:45;;;;;;;9.07;6.07;;;1.10;84.80;;;;;;6265041;28;20311;-62
2023/12/31 08:49:46;;;;;;;9.73;6.27;;;;;;;;;;6260828;28;20188;-62
2023/12/31 08:52:48;;;;;;;9.93;6.33;;;;;;;;;;6284466;28;20197;-62
2023/12/31 08:55:50;;;;;;;8.33;6.33;;;;;;;;;;6289987;28;20284;-62
2023/12/31 08:58:52;;;;;;;9.47;6.23;;;;;;;;;;6278542;28;20209;-62
2023/12/31 09:01:53;;;;;;;6.57;5.70;;;;;;;;;;6286505;28;20189;-62
2023/12/31 09:04:55;;;;;;;6.97;4.90;;;;;;;;;;6278184;28;20189;-62
2023/12/31 09:07:56;;;;;;;7.60;6.00;;;;;;;;;;6267908;28;20193;-62
2023/12/31 09:10:57;;;;;;;16.87;9.83;;;;;;;;;;6283438;28;20232;-62
2023/12/31 09:13:59;;;;;;;15.57;10.23;;;;;;;;;;6288697;28;20204;-62
2023/12/31 09:17:00;;;;;;;18.80;11.67;;;;;;;;;;6290414;28;20275;-62
2023/12/31 09:20:06;;;;;;;17.60;10.20;;;;;;;;;;6293563;28;20220;-62
2023/12/31 09:23:07;;;;;;;13.37;9.10;;;;;;;;;;6304896;28;20196;-63
2023/12/31 09:26:10;;;;;;;13.07;8.47;;;;;;;;;;6291010;28;20188;-62
2023/12/31 09:29:11;;;;;;;20.63;14.70;;;;;;;;;;6291733;28;20210;-63
2023/12/31 09:32:12;;;;;;;17.47;13.43;;;;;;;;;;6285542;28;20200;-63
2023/12/31 09:35:13;;;;;;;15.47;11.73;;;;;;;;;;6303150;28;20187;-63
2023/12/31 09:38:14;;;;;;;16.03;11.60;;;;;;;;;;6282180;28;20257;-63
2023/12/31 09:41:23;;;;;;;12.00;8.57;;;;;;;;;;6280778;28;20221;-63
2023/12/31 09:44:24;;;;;;;9.03;7.63;;;;;;;;;;6294760;28;20277;-67
2023/12/31 09:47:25;;;;;;;12.00;7.73;;;;;;;;;;6283220;28;20200;-63
2023/12/31 09:50:26;;;;;;;12.03;8.87;;;;;;;;;;6309111;28;20191;-63
2023/12/31 09:53:27;;;;;;;11.40;8.50;;;;;;;;;;6283108;28;20203;-63
2023/12/31 09:56:30;;;;;;;10.20;7.70;;;;;;;;;;6296238;28;20224;-63
2023/12/31 09:59:31;;;;;;;9.70;7.80;;;;;;;;;;6280851;28;20309;-63
2023/12/31 10:02:33;;;;;;;9.70;6.80;;;;;;;;;;6295946;28;20215;-63
2023/12/31 10:05:35;;;;;;;10.83;6.33;;;;;;;;;;6281651;28;20199;-62
2023/12/31 10:08:38;;;;;;;9.13;6.37;;;;;;;;;;6308120;28;20185;-62
2023/12/31 10:11:40;;;;;;;12.10;6.67;;;;;;;;;;6302658;28;20192;-62
2023/12/31 10:14:41;;;;;;;9.37;6.33;;;;;;;;;;6303364;28;20180;-63
2023/12/31 10:17:42;;;;;;;11.17;7.03;;;;;;;;;;6276314;28;20224;-62
2023/12/31 10:20:43;;;;;;;11.20;7.63;;;;;;;;;;6279356;28;20220;-62
2023/12/31 10:23:44;;;;;;;10.67;6.67;;;;;;;;;;6278033;28;20212;-63
2023/12/31 10:26:45;;;;;;;8.40;6.37;;;;;;;;;;6282477;28;20227;-63
2023/12/31 10:29:46;;;;;;;8.23;6.00;;;;;;;;;;6282285;28;20196;-63
2023/12/31 10:32:47;;;;;;;8.60;6.80;;;;;;;;;;6289978;28;20200;-63
2023/12/31 10:35:50;;;;;;;9.80;6.80;;;;;;;;;;6299773;28;20197;-63
2023/12/31 10:38:51;;;;;;;8.40;5.40;;;;;;;;;;6291254;28;20291;-63
2023/12/31 10:41:56;;;;;;;7.90;5.80;;;;;;;;;;6293418;28;20212;-63
2023/12/31 10:44:58;;;;;;;9.07;6.73;;;;;;;;;;6300463;28;20203;-63
2023/12/31 10:48:01;;;;;;;7.40;5.90;;;;;;;;;;6289327;28;20242;-63
2023/12/31 10:51:05;;;;;;;6.47;5.43;;;;;;;;;;6288325;28;20207;-63
2023/12/31 10:54:07;;;;;;;6.10;4.63;;;;;;;;;;6307110;28;20239;-63
2023/12/31 10:57:09;;;;;;;7.07;5.70;;;;;;;;;;6296766;28;20255;-63
2023/12/31 11:00:11;;;;;;;7.07;5.23;;;;;;;;;;6306486;28;20207;-63
2023/12/31 11:03:13;;;;;;;7.13;5.60;;;;;;;;;;6298292;28;20185;-63
2023/12/31 11:06:16;;;;;;;6.90;5.30;;;;;;;;;;6276767;28;20196;-63
2023/12/31 11:09:19;;;;;;;6.70;4.67;;;;;;;;;;6291585;28;20283;-63
2023/12/31 11:12:20;;;;;;;6.37;4.63;;;;;;;;;;6305742;28;20242;-63
2023/12/31 11:15:22;;;;;;;7.17;4.70;;;;;;;;;;6286921;28;20270;-63
2023/12/31 11:18:31;;;;;;;8.70;5.17;;;;;;;;;;6294874;28;20647;-63
2023/12/31 11:21:38;;;;;;;7.37;4.70;;;;;;;;;;6296324;28;20686;-63
2023/12/31 11:24:39;;;;;;;5.90;4.47;;;;;;;;;;6298720;28;20194;-66
2023/12/31 11:27:41;;;;;;;5.37;4.77;;;;;;;;;;6289610;28;20241;-62
2023/12/31 11:30:46;;;;;;;5.40;4.30;;;;;;;;;;6281736;28;20197;-65
2023/12/31 11:33:47;;;;;;;7.07;5.23;;;;;;;;;;6300497;28;20190;-63
2023/12/31 11:36:48;;;;;;;4.70;4.00;;;;;;;;;;6296407;28;20225;-63
2023/12/31 11:39:53;;;;;;;6.10;4.50;;;;;;;;;;6286271;28;20224;-64
2023/12/31 11:42:54;;;;;;;5.57;4.67;;;;;;;;;;6299963;28;20192;-64
2023/12/31 11:45:55;;;;;;;7.60;5.27;;;;;;;;;;6279770;28;20191;-64
2023/12/31 11:48:57;;;;;;;5.17;4.43;;;;;;;;;;6279729;28;20204;-64
2023/12/31 11:52:01;;;;;;;5.37;4.37;;;;;;;;;;6282128;28;20205;-64
2023/12/31 11:55:02;;;;;;;5.97;4.57;;;1.10;84.70;;;;;;6279668;28;20284;-64
2023/12/31 11:58:05;;;;;;;6.20;4.90;;;;;;;;;;6260183;28;20722;-64
2023/12/31 12:01:06;;;;;;;5.57;4.20;;;;;;;;;;6302915;28;20213;-64
2023/12/31 12:04:08;;;;;;;6.18;5.05;;;;;;;;;;6274531;28;20747;-68
2023/12/31 12:07:09;;;;;;;6.70;5.13;;;;;;;;;;6301511;28;20195;-64
2023/12/31 12:10:11;;;;;;;8.63;4.37;;;;;;;;;;6291576;28;20216;-64
2023/12/31 12:13:12;;;;;;;6.17;4.90;;;;;;;;;;6304420;28;20188;-64
2023/12/31 12:16:13;;;;;;;6.13;4.83;;;;;;;;;;6285763;28;20193;-65
2023/12/31 12:19:16;;;;;;;5.10;4.60;;;;;;;;;;6285803;28;20776;-64
2023/12/31 12:22:17;;;;;;;4.67;3.77;;;;;;;;;;6280905;28;20605;-64
2023/12/31 12:25:18;;;;;;;5.10;4.27;;;;;;;;;;6290893;28;20195;-67
2023/12/31 12:28:20;;;;;;;7.40;4.80;;;;;;;;;;6289339;28;20214;-67
2023/12/31 12:31:21;;;;;;;5.57;4.43;;;;;;;;;;6301268;28;20195;-68
2023/12/31 12:34:22;;;;;;;4.23;3.83;;;;;;;;;;6280105;28;20193;-69
2023/12/31 12:37:23;;;;;;;5.60;4.50;;;;;;;;;;6282648;28;20193;-68
2023/12/31 12:40:24;;;;;;;5.47;4.43;;;;;;;;;;6286414;28;20235;-70
2023/12/31 12:43:30;;;;;;;4.70;3.57;;;;;;;;;;6287147;28;20286;-67
2023/12/31 12:46:31;;;;;;;5.57;4.20;;;;;;;;;;6293742;28;20189;-67
2023/12/31 12:49:32;;;;;;;5.67;4.70;;;;;;;;;;6292242;28;20216;-67
2023/12/31 12:52:33;;;;;;;6.30;4.43;;;;;;;;;;6293608;28;20274;-68
2023/12/31 12:55:34;;;;;;;5.30;4.70;;;;;;;;;;6304264;28;20275;-69
2023/12/31 12:58:36;;;;;;;5.30;4.10;;;;;;;;;;6283316;28;20336;-68
2023/12/31 13:01:37;;;;;;;5.90;4.53;;;;;;;;;;6300169;28;20537;-67
2023/12/31 13:04:38;;;;;;;4.70;4.17;;;;;;;;;;6280962;28;20200;-67
2023/12/31 13:07:40;;;;;;;6.27;4.70;;;;;;;;;;6295934;28;20195;-67
2023/12/31 13:10:41;;;;;;;5.10;4.20;;;;;;;;;;6291327;28;20192;-67
2023/12/31 13:13:42;;;;;;;4.00;3.60;;;;;;;;;;6286770;28;20298;-68
2023/12/31 13:16:43;;;;;;;5.43;4.17;;;;;;;;;;6286888;28;20230;-68
2023/12/31 13:19:44;;;;;;;5.07;4.00;;;;;;;;;;6293751;28;20224;-68
2023/12/31 13:22:45;;;;;;;4.33;3.93;;;;;;;;;;6296046;28;20686;-69
2023/12/31 13:25:46;;;;;;;5.73;4.43;;;;;;;;;;6306516;28;20192;-69
2023/12/31 13:28:47;;;;;;;8.50;4.83;;;;;;;;;;6288817;28;20191;-68
2023/12/31 13:31:49;;;;;;;6.37;5.30;;;;;;;;;;6280144;28;20216;-69
2023/12/31 13:34:50;;;;;;;7.03;4.60;;;;;;;;;;6288263;28;20185;-68
2023/12/31 13:37:51;;;;;;;6.30;5.10;;;;;;;;;;6281661;28;20200;-68
2023/12/31 13:40:54;;;;;;;11.40;6.83;;;;;;;;;;6285274;28;20211;-67
2023/12/31 13:43:56;;;;;;;9.27;6.70;;;;;;;;;;6289112;28;20203;-67
2023/12/31 13:46:57;;;;;;;7.93;6.00;;;;;;;;;;6283586;28;20192;-69
2023/12/31 13:49:58;;;;;;;9.43;7.07;;;;;;;;;;6300467;28;20199;-68
2023/12/31 13:53:00;;;;;;;8.33;6.77;;;;;;;;;;6288590;28;20193;-68
2023/12/31 13:56:01;;;;;;;7.57;6.17;;;;;;;;;;6283695;28;20201;-69
2023/12/31 13:59:02;;;;;;;8.10;5.70;;;;;;;;;;6300325;28;20212;-67
2023/12/31 14:02:03;;;;;;;8.57;6.03;;;;;;;;;;6289287;28;20194;-68
2023/12/31 14:05:04;;;;;;;10.70;6.67;;;;;;;;;;6304713;28;20184;-69
2023/12/31 14:08:05;;;;;;;10.17;8.23;;;;;;;;;;6309794;28;20644;-69
2023/12/31 14:11:06;;;;;;;9.67;7.23;;;;;;;;;;6293028;28;20193;-70
2023/12/31 14:14:08;;;;;;;8.57;6.87;;;;;;;;;;6285104;28;20200;-69
2023/12/31 14:17:09;;;;;;;9.60;6.23;;;;;;;;;;6299210;28;20181;-70
2023/12/31 14:20:11;;;;;;;9.07;6.93;;;;;;;;;;6287188;28;20277;-70
2023/12/31 14:23:12;;;;;;;12.13;8.00;;;;;;;;;;6295562;28;20201;-66
2023/12/31 14:26:13;;;;;;;10.73;7.17;;;;;;;;;;6301321;28;20324;-66
2023/12/31 14:29:14;;;;;;;12.87;7.40;;;;;;;;;;6277725;28;20215;-67
2023/12/31 14:32:15;;;;;;;9.67;6.90;;;;;;;;;;6288668;28;20283;-68
2023/12/31 14:35:16;;;;;;;10.90;8.27;;;;;;;;;;6289249;28;20207;-65
2023/12/31 14:38:18;;;;;;;13.93;8.97;;;;;;;;;;6282466;28;20196;-68
2023/12/31 14:41:19;;;;;;;11.47;7.97;;;;;;;;;;6287983;28;20216;-68
2023/12/31 14:44:23;;;;;;;10.37;7.90;;;;;;;;;;6299224;28;20212;-68
2023/12/31 14:47:24;;;;;;;10.13;7.50;;;;;;;;;;6291496;28;20181;-74
2023/12/31 14:50:26;;;;;;;10.23;7.90;;;7.20;69.70;;;;;;6285644;28;20201;-68
2023/12/31 14:53:27;;;;;;;9.43;7.63;;;6.30;73.60;;;;;;6283115;28;20197;-69
2023/12/31 14:56:32;;;;;;;11.63;9.07;;;6.20;73.60;;;;;;6290178;28;20248;-69
2023/12/31 14:59:33;;;;;;;12.90;8.57;;;6.10;72.40;;;;;;6292221;28;20217;-67
2023/12/31 15:02:34;;;;;;;11.53;7.90;;;6.00;72.90;;;;;;6274095;28;20192;-67
2023/12/31 15:05:36;;;;;;;11.17;7.80;;;5.90;73.30;;;;;;6259767;28;20204;-67
2023/12/31 15:08:36;;;;;;;10.93;8.40;;;5.80;73.90;;;;;;6279233;28;20196;-66
2023/12/31 15:11:39;;;;;;;11.07;8.47;;;5.70;74.10;;;;;;6278411;28;20184;-67
2023/12/31 15:14:39;;;;;;;11.47;8.77;;;5.60;74.40;;;;;;6292524;28;20236;-67
2023/12/31 15:17:40;;;;;;;12.63;9.40;;;5.60;74.70;;;;;;6286705;28;20189;-67
2023/12/31 15:20:45;;;;;;;11.90;8.83;;;5.50;75.00;;;;;;6265988;28;20224;-70
2023/12/31 15:23:46;;;;;;;12.30;8.37;;;5.50;75.20;;;;;;6267569;28;20491;-71
2023/12/31 15:26:46;;;;;;;11.17;8.47;;;5.50;75.20;;;;;;6280015;28;20195;-65
2023/12/31 15:29:47;;;;;;;18.97;9.57;;;5.30;75.40;;;;;;6290725;28;20224;-65
2023/12/31 15:32:48;;;;;;;16.43;10.80;;;5.30;75.10;;;;;;6284691;28;20268;-65
2023/12/31 15:35:50;;;;;;;14.90;9.23;;;5.20;75.90;;;;;;6268460;28;20190;-65
2023/12/31 15:38:51;;;;;;;12.03;8.83;;;5.20;76.00;;;;;;6256227;28;20196;-65
2023/12/31 15:41:52;;;;;;;13.57;9.40;;;5.10;76.50;;;;;;6262273;28;20216;-65
2023/12/31 15:44:52;;;;;;;14.07;10.50;;;5.00;76.70;;;;;;6267142;28;20204;-66
2023/12/31 15:47:54;;;;;;;12.43;9.67;;;5.00;77.00;;;;;;6274098;28;20196;-65
2023/12/31 15:50:55;;;;;;;12.83;9.57;;;5.00;77.20;;;;;;6268304;28;20193;-65
2023/12/31 15:53:56;;;;;;;12.33;8.97;;;5.00;77.20;;;;;;6285975;28;20282;-64
2023/12/31 15:56:57;;;;;;;20.07;10.67;;;4.90;77.30;;;;;;6260949;28;20237;-65
2023/12/31 16:00:00;;;;;;;14.67;9.63;;;;;;;;;;6276758;28;20217;-65
2023/12/31 16:03:03;;;;;;;15.40;10.37;;;;;;;;;;6268833;28;20185;-65
2023/12/31 16:06:04;;;;;;;14.07;10.60;;;;;;;;;;6287503;28;20216;-65
2023/12/31 16:09:06;;;;;;;16.57;11.37;;;;;;;;;;6270208;28;20189;-65
2023/12/31 16:12:08;;;;;;;14.97;10.87;;;;;;;;;;6297749;28;20241;-64
2023/12/31 16:15:10;;;;;;;16.30;11.90;;;;;;;;;;6271303;28;20220;-64
2023/12/31 16:18:12;;;;;;;16.87;11.23;;;;;;;;;;6266868;28;20193;-64
2023/12/31 16:21:13;;;;;;;13.67;10.23;;;;;;;;;;6265281;28;20212;-64
2023/12/31 16:24:15;;;;;;;16.43;12.40;;;;;;;;;;6290578;28;20673;-65
2023/12/31 16:27:16;;;;;;;15.17;10.97;;;;;;;;;;6301848;28;20192;-63
2023/12/31 16:30:17;;;;;;;15.03;10.70;;;;;;;;;;6278173;28;20223;-65
2023/12/31 16:33:18;;;;;;;14.33;10.67;;;;;;;;;;6283230;28;20196;-65
2023/12/31 16:36:19;;;;;;;14.10;10.53;;;;;;;;;;6280485;28;20196;-64
2023/12/31 16:39:20;;;;;;;14.57;10.00;;;;;;;;;;6275285;28;20226;-65
2023/12/31 16:42:22;;;;;;;12.57;9.50;;;;;;;;;;6276471;28;20195;-64
2023/12/31 16:45:23;;;;;;;14.60;10.20;;;;;;;;;;6279129;28;20226;-64
2023/12/31 16:48:24;;;;;;;13.37;10.43;;;;;;;;;;6280936;28;20202;-65
2023/12/31 16:51:25;;;;;;;21.50;14.97;;;;;;;;;;6277467;28;20197;-65
2023/12/31 16:54:26;;;;;;;26.97;15.80;;;;;;;;;;6296830;28;20196;-64
2023/12/31 16:57:27;;;;;;;23.17;15.67;;;;;;;;;;6303597;28;20235;-65
2023/12/31 17:00:28;;;;;;;19.03;13.47;;;;;;;;;;6283075;28;20223;-65
2023/12/31 17:03:29;;;;;;;16.50;12.20;;;4.90;77.50;;;;;;6275632;28;20227;-64
2023/12/31 17:06:30;;;;;;;17.17;10.77;;;4.20;80.50;;;;;;6262162;28;20196;-65
2023/12/31 17:09:31;;;;;;;13.63;9.43;;;4.20;80.30;;;;;;6266144;28;20249;-65
2023/12/31 17:12:32;;;;;;;16.53;9.77;;;4.20;81.00;;;;;;6277345;28;20201;-65
2023/12/31 17:15:32;;;;;;;13.97;9.77;;;4.20;80.70;;;;;;6277921;28;20796;-65